Time;durP1;ratioP1;P1;durP2;ratioP2;P2;SDS_P1;SDS_P2;PMS_P1;PMS_P2;Temp;Humidity;BMP_temperature;BMP_pressure;BME280_temperature;BME280_humidity;BME280_pressure;Samples;Min_cycle;Max_cycle;Signal;HPM_P1;HPM_P2
2022/04/16 00:00:52;;;;;;;11.60;10.20;;;;;;;6.92;71.64;103038.09;5019885;28;20807;-71
2022/04/16 00:03:21;;;;;;;13.33;8.67;;;;;;;6.67;72.16;103039.16;5019720;28;20562;-71
2022/04/16 00:05:47;;;;;;;10.10;8.53;;;;;;;7.20;70.23;103034.59;5019018;28;20422;-71
2022/04/16 00:08:12;;;;;;;9.17;8.07;;;;;;;6.51;71.30;103049.34;5019820;28;20667;-72
2022/04/16 00:10:39;;;;;;;10.63;8.43;;;;;;;6.50;71.65;103057.91;5019635;28;20935;-72
2022/04/16 00:13:05;;;;;;;11.83;8.13;;;;;;;6.63;71.11;103046.63;5019527;28;20492;-71
2022/04/16 00:15:31;;;;;;;11.50;8.50;;;;;;;6.95;69.59;103048.63;5019981;28;20448;-71
2022/04/16 00:17:56;;;;;;;12.13;8.53;;;;;;;6.49;70.42;103051.81;5019301;28;20456;-71
2022/04/16 00:20:26;;;;;;;11.20;8.30;;;;;;;6.87;69.84;103049.84;5019349;28;20418;-71
2022/04/16 00:22:52;;;;;;;11.97;9.17;;;;;;;6.51;72.36;103055.44;5018514;28;20167;-71
2022/04/16 00:25:19;;;;;;;11.40;8.97;;;;;;;5.98;73.53;103061.53;5019186;28;20430;-71
2022/04/16 00:27:44;;;;;;;12.00;9.30;;;;;;;7.03;72.18;103062.09;5019367;28;20181;-71
2022/04/16 00:30:10;;;;;;;11.03;9.07;;;;;;;6.23;72.23;103065.72;5019582;28;20784;-71
2022/04/16 00:32:40;;;;;;;10.70;8.90;;;;;;;6.46;72.70;103061.13;5018339;28;20846;-72
2022/04/16 00:35:07;;;;;;;13.33;9.13;;;;;;;6.52;72.16;103058.91;5018564;28;20174;-72
2022/04/16 00:37:33;;;;;;;10.30;8.90;;;;;;;6.15;73.80;103064.31;5019499;28;20410;-71
2022/04/16 00:39:59;;;;;;;14.63;10.27;;;;;;;6.76;72.19;103069.03;5019158;28;20426;-71
2022/04/16 00:42:24;;;;;;;9.50;8.50;;;;;;;6.67;72.08;103064.16;5018228;28;20418;-71
2022/04/16 00:44:50;;;;;;;13.03;9.67;;;;;;;6.40;73.22;103067.69;5019013;28;20199;-71
2022/04/16 00:47:15;;;;;;;9.90;8.13;;;;;;;5.88;73.79;103074.59;5019202;28;20537;-72
2022/04/16 00:49:40;;;;;;;12.20;9.57;;;;;;;6.58;73.35;103073.16;5019396;28;20250;-71
2022/04/16 00:52:08;;;;;;;9.80;8.53;;;;;;;6.54;72.24;103065.09;5019406;28;20266;-71
2022/04/16 00:54:41;;;;;;;10.37;8.70;;;;;;;5.79;73.10;103074.91;5018985;28;20163;-72
2022/04/16 00:57:09;;;;;;;9.40;8.40;;;;;;;6.59;71.32;103076.66;5017899;28;20426;-72
2022/04/16 00:59:35;;;;;;;11.13;8.30;;;;;;;5.92;72.13;103086.97;5018888;28;20474;-71
2022/04/16 01:02:00;;;;;;;8.67;7.87;;;;;;;6.24;72.11;103083.06;5018339;28;20421;-72
2022/04/16 01:04:26;;;;;;;10.97;8.47;;;;;;;6.16;71.98;103086.84;5019098;28;20268;-72
2022/04/16 01:06:51;;;;;;;9.90;7.67;;;;;;;5.80;72.00;103086.16;5018697;28;20229;-72
2022/04/16 01:09:17;;;;;;;11.77;8.77;;;;;;;5.93;71.00;103083.59;5018692;28;20402;-71
2022/04/16 01:11:46;;;;;;;8.67;7.20;;;;;;;5.90;71.49;103084.28;5019035;28;20536;-71
2022/04/16 01:14:12;;;;;;;9.20;6.80;;;;;;;6.69;68.58;103081.59;5018727;28;20198;-71
2022/04/16 01:16:37;;;;;;;9.10;8.20;;;;;;;6.54;69.81;103078.06;5018615;28;20437;-71
2022/04/16 01:19:03;;;;;;;11.50;7.13;;;;;;;7.08;66.83;103089.19;5019207;28;20167;-72
2022/04/16 01:21:28;;;;;;;6.80;6.10;;;;;;;5.84;68.54;103095.91;5018678;28;20217;-72
2022/04/16 01:23:53;;;;;;;7.70;6.90;;;;;;;5.59;70.00;103089.09;5018969;28;20214;-71
2022/04/16 01:26:20;;;;;;;7.50;5.93;;;;;;;5.99;70.31;103094.34;5020034;28;20228;-71
2022/04/16 01:28:46;;;;;;;10.23;6.50;;;;;;;5.67;70.64;103093.09;5018792;28;20209;-72
2022/04/16 01:31:11;;;;;;;7.10;6.40;;;;;;;6.01;70.38;103094.50;5018717;28;20788;-71
2022/04/16 01:33:37;;;;;;;9.70;6.73;;;;;;;5.84;70.76;103096.78;5020240;28;20163;-71
2022/04/16 01:36:02;;;;;;;10.47;7.10;;;;;;;5.57;72.17;103101.00;5022695;28;20171;-71
2022/04/16 01:38:28;;;;;;;9.37;6.77;;;;;;;5.61;71.65;103104.72;5022070;28;20186;-71
2022/04/16 01:40:55;;;;;;;8.10;7.00;;;;;;;5.33;71.68;103106.31;5023398;28;20163;-71
2022/04/16 01:43:20;;;;;;;8.80;7.10;;;;;;;5.39;71.84;103111.88;5021897;28;20191;-70
2022/04/16 01:45:49;;;;;;;8.70;7.20;;;;;;;5.89;71.38;103112.66;5021950;28;20421;-71
2022/04/16 01:48:15;;;;;;;7.40;6.37;;;;;;;5.71;70.87;103117.47;5022812;28;20175;-71
2022/04/16 01:50:40;;;;;;;7.60;6.80;;;;;;;5.79;70.35;103116.31;5021546;28;20413;-70
2022/04/16 01:53:06;;;;;;;11.67;6.40;;;;;;;5.88;69.52;103109.16;5021702;28;20167;-70
2022/04/16 01:55:31;;;;;;;7.90;6.40;;;;;;;5.86;69.84;103112.47;5022928;28;20171;-70
2022/04/16 01:57:58;;;;;;;6.43;5.73;;;;;;;5.36;69.83;103121.13;5021512;28;20167;-70
2022/04/16 02:00:23;;;;;;;6.27;5.67;;;;;;;5.34;69.89;103118.41;5021337;28;20171;-71
2022/04/16 02:02:48;;;;;;;6.20;5.47;;;;;;;6.07;68.66;103119.09;5021273;28;20484;-71
2022/04/16 02:05:14;;;;;;;6.90;5.50;;;;;;;5.45;68.58;103118.28;5021901;28;20283;-71
2022/04/16 02:07:40;;;;;;;6.93;5.50;;;;;;;5.18;70.61;103123.31;5022149;28;20174;-72
2022/04/16 02:10:06;;;;;;;6.47;5.43;;;;;;;5.39;69.03;103117.06;5021086;28;20500;-72
2022/04/16 02:12:31;;;;;;;5.60;5.10;;;;;;;5.09;69.06;103123.59;5021491;28;20171;-71
2022/04/16 02:14:56;;;;;;;8.40;5.80;;;;;;;5.21;68.91;103126.16;5021419;28;20436;-70
2022/04/16 02:17:23;;;;;;;6.00;5.10;;;;;;;5.62;68.52;103117.75;5021126;28;20181;-71
2022/04/16 02:19:48;;;;;;;5.80;5.30;;;;;;;5.14;68.80;103121.31;5021508;28;20176;-71
2022/04/16 02:22:15;;;;;;;5.73;5.13;;;;;;;5.39;68.83;103114.47;5021755;28;20463;-71
2022/04/16 02:24:40;;;;;;;7.33;5.60;;;;;;;5.62;68.42;103112.56;5020917;28;20214;-70
2022/04/16 02:27:05;;;;;;;7.77;5.80;;;;;;;5.29;70.26;103116.31;5021335;28;20421;-70
2022/04/16 02:29:31;;;;;;;7.83;6.10;;;;;;;5.55;69.98;103126.78;5021930;28;20441;-70
2022/04/16 02:31:57;;;;;;;8.80;7.00;;;;;;;4.95;70.81;103129.44;5021162;28;20171;-74
2022/04/16 02:34:22;;;;;;;6.93;6.17;;;;;;;4.93;72.34;103126.75;5021493;28;20171;-74
2022/04/16 02:36:48;;;;;;;12.90;7.43;;;;;;;4.68;72.82;103135.34;5022212;28;20232;-74
2022/04/16 02:39:14;;;;;;;10.30;6.23;;;;;;;5.10;72.70;103139.97;5021535;28;20167;-75
2022/04/16 02:41:40;;;;;;;7.80;6.33;;;;;;;5.05;72.12;103131.91;5021267;28;20433;-72
2022/04/16 02:44:05;;;;;;;7.90;5.90;;;;;;;5.43;71.47;103138.88;5021797;28;20456;-72
2022/04/16 02:49:18;;;;;;;7.07;6.17;;;;;;;5.97;69.40;103134.78;5021582;28;20173;-73
2022/04/16 02:51:43;;;;;;;6.93;5.70;;;;;;;5.14;70.17;103142.00;5020357;28;20694;-73
2022/04/16 02:54:09;;;;;;;7.53;5.10;;;;;;;5.12;70.75;103138.41;5021123;28;20417;-73
2022/04/16 02:56:34;;;;;;;6.27;5.47;;;;;;;5.14;70.30;103142.91;5020800;28;20225;-72
2022/04/16 02:58:59;;;;;;;4.97;4.47;;;;;;;5.03;69.80;103142.16;5021399;28;20178;-73
2022/04/16 03:01:25;;;;;;;6.27;5.03;;;;;;;5.14;69.91;103142.00;5021079;28;20175;-73
2022/04/16 03:03:50;;;;;;;7.80;4.77;;;;;;;4.93;69.71;103146.56;5021094;28;20551;-71
2022/04/16 03:06:16;;;;;;;7.70;5.30;;;;;;;4.91;70.60;103146.41;5021134;28;20226;-72
2022/04/16 03:08:41;;;;;;;5.70;5.17;;;;;;;5.12;69.90;103151.34;5021536;28;20459;-71
2022/04/16 03:11:07;;;;;;;5.20;4.70;;;;;;;4.87;69.72;103147.91;5020172;28;20467;-71
2022/04/16 03:13:34;;;;;;;6.20;4.37;;;;;;;4.85;70.53;103152.06;5021094;28;20194;-70
2022/04/16 03:18:48;;;;;;;4.70;4.30;;;;;;;4.86;70.26;103168.47;5020615;28;20444;-71
2022/04/16 03:21:13;;;;;;;6.20;4.70;;;;;;;4.64;71.08;103159.16;5020546;28;20422;-70
2022/04/16 03:23:39;;;;;;;4.97;4.03;;;;;;;4.83;70.25;103168.22;5022731;28;20544;-71
2022/04/16 03:26:05;;;;;;;5.63;4.47;;;;;;;5.56;68.88;103157.03;5023512;28;20197;-70
2022/04/16 03:28:32;;;;;;;5.33;4.83;;;;;;;4.84;69.83;103162.28;5022033;28;20414;-70
2022/04/16 03:31:00;;;;;;;5.90;4.87;;;;;;;4.74;70.72;103159.84;5021745;28;20171;-70
2022/04/16 03:33:25;;;;;;;4.93;4.33;;;;;;;4.49;70.59;103151.19;5021011;28;20409;-70
2022/04/16 03:35:51;;;;;;;9.80;4.30;;;;;;;4.30;72.05;103161.84;5020984;28;20408;-71
2022/04/16 03:38:19;;;;;;;4.87;3.90;;;;;;;4.75;70.78;103159.94;5020561;28;20181;-70
2022/04/16 03:40:45;;;;;;;6.00;4.60;;;;;;;4.62;71.10;103152.97;5020146;28;20433;-70
2022/04/16 03:43:10;;;;;;;5.10;4.47;;;;;;;4.44;71.58;103152.53;5020443;28;20410;-71
2022/04/16 03:45:36;;;;;;;7.10;4.80;;;;;;;4.41;71.78;103147.16;5019267;28;20171;-70
2022/04/16 03:48:04;;;;;;;4.83;4.43;;;;;;;4.55;71.10;103149.03;5019937;28;20262;-71
2022/04/16 03:50:30;;;;;;;4.73;4.33;;;;;;;4.76;70.97;103153.09;5020598;28;20406;-71
2022/04/16 03:52:56;;;;;;;4.80;4.30;;;;;;;4.35;71.33;103154.44;5019850;28;20461;-70
2022/04/16 04:00:58;;;;;;;5.83;4.60;;;;;;;4.56;70.82;103168.03;5019929;28;20553;-70
2022/04/16 04:03:24;;;;;;;6.37;4.93;;;;;;;5.22;70.70;103167.63;5018845;28;20540;-71
2022/04/16 04:05:49;;;;;;;4.67;3.90;;;;;;;4.49;70.25;103173.53;5019769;28;20182;-71
2022/04/16 04:08:16;;;;;;;4.70;4.30;;;;;;;4.65;70.97;103184.19;5020270;28;20182;-70
2022/04/16 04:10:42;;;;;;;5.13;4.60;;;;;;;4.97;69.81;103190.81;5019031;28;20422;-71
2022/04/16 04:13:07;;;;;;;6.10;5.03;;;;;;;5.04;69.46;103197.34;5019416;28;20429;-71
2022/04/16 04:15:33;;;;;;;6.77;5.57;;;;;;;5.99;67.51;103197.06;5019852;28;20599;-71
2022/04/16 04:17:59;;;;;;;6.10;4.67;;;;;;;5.78;67.01;103183.50;5019556;28;20182;-71
2022/04/16 04:20:27;;;;;;;5.10;4.50;;;;;;;5.08;68.74;103176.06;5019531;28;20178;-70
2022/04/16 04:22:53;;;;;;;6.03;4.93;;;;;;;4.97;69.51;103177.00;5019608;28;20784;-71
2022/04/16 04:25:18;;;;;;;4.90;4.10;;;;;;;4.41;70.98;103184.97;5018439;28;20469;-70
2022/04/16 04:27:44;;;;;;;4.67;4.20;;;;;;;4.49;71.14;103186.44;5019388;28;20179;-71
2022/04/16 04:30:10;;;;;;;5.23;4.73;;;;;;;4.51;71.05;103185.78;5019683;28;20185;-70
2022/04/16 04:32:38;;;;;;;5.47;4.93;;;;;;;5.13;70.06;103181.56;5001998;28;20206;-70
2022/04/16 04:35:05;;;;;;;6.17;4.90;;;;;;;5.37;68.58;103178.16;5018571;28;20432;-71
2022/04/16 04:37:30;;;;;;;5.27;4.77;;;;;;;4.97;69.75;103179.59;5019832;28;20410;-71
2022/04/16 04:39:55;;;;;;;4.50;4.13;;;;;;;5.20;69.42;103173.47;5019283;28;20421;-72
2022/04/16 04:42:24;;;;;;;4.57;4.17;;;;;;;5.00;70.02;103172.94;5020077;28;20175;-72
2022/04/16 04:44:49;;;;;;;4.93;4.30;;;;;;;4.53;70.40;103181.63;5019300;28;20207;-72
2022/04/16 04:47:14;;;;;;;4.47;3.93;;;;;;;4.89;69.43;103179.91;5018687;28;20645;-71
2022/04/16 04:49:40;;;;;;;5.43;4.60;;;;;;;4.95;69.46;103191.50;5018820;28;20459;-71
2022/04/16 04:52:05;;;;;;;5.20;4.53;;;;;;;5.11;68.43;103201.25;5018872;28;20170;-71
2022/04/16 04:54:31;;;;;;;4.63;4.17;;;;;;;4.82;69.19;103200.06;5017865;28;20202;-72
2022/04/16 04:56:56;;;;;;;6.97;4.53;;;;;;;5.22;69.49;103203.84;5018800;28;20174;-72
2022/04/16 04:59:21;;;;;;;6.70;4.73;;;;;;;5.06;69.11;103199.25;5018781;28;20402;-72
2022/04/16 05:01:47;;;;;;;5.30;4.27;;;;;;;4.67;70.31;103205.00;5018742;28;20437;-72
2022/04/16 05:04:12;;;;;;;4.47;4.07;;;;;;;4.82;69.63;103206.13;5018370;28;20226;-73
2022/04/16 05:06:37;;;;;;;6.60;4.57;;;;;;;5.18;69.65;103207.00;5018918;28;20468;-72
2022/04/16 05:09:03;;;;;;;4.50;4.10;;;;;;;5.53;68.35;103213.75;5017955;28;20171;-72
2022/04/16 05:11:28;;;;;;;4.20;3.80;;;;;;;5.18;68.82;103225.09;5018315;28;20446;-71
2022/04/16 05:13:53;;;;;;;4.83;4.03;;;;;;;5.23;68.06;103222.81;5019076;28;20167;-72
2022/04/16 05:16:19;;;;;;;5.33;4.00;;;;;;;5.11;68.23;103220.25;5018423;28;20174;-72
2022/04/16 05:18:44;;;;;;;4.37;3.97;;;;;;;5.47;67.63;103220.19;5018484;28;20568;-71
2022/04/16 05:21:10;;;;;;;4.50;4.10;;;;;;;5.44;68.12;103227.72;5018522;28;20210;-73
2022/04/16 05:23:39;;;;;;;4.00;3.60;;;;;;;5.38;67.46;103223.00;5018284;28;20199;-73
2022/04/16 05:26:04;;;;;;;3.97;3.57;;;;;;;5.39;67.99;103222.22;5017797;28;20583;-72
2022/04/16 05:28:29;;;;;;;4.03;3.63;;;;;;;5.68;67.41;103225.97;5018552;28;20414;-72
2022/04/16 05:30:58;;;;;;;6.20;3.73;;;;;;;5.82;67.22;103225.25;5018273;28;20174;-72
2022/04/16 05:36:07;;;;;;;6.30;3.97;;;;;;;5.13;68.19;103228.09;5018419;28;20472;-72
2022/04/16 05:38:32;;;;;;;4.40;3.83;;;;;;;5.62;67.20;103229.03;5018033;28;20421;-72
2022/04/16 05:40:58;;;;;;;3.90;3.50;;;;;;;5.48;66.87;103229.72;5018170;28;20529;-72
2022/04/16 05:43:23;;;;;;;4.10;3.70;;;;;;;7.92;61.70;103222.34;5017996;28;20198;-73
2022/04/16 05:45:49;;;;;;;4.07;3.67;;;;;;;9.08;57.83;103206.56;5018061;28;20182;-72
2022/04/16 05:48:14;;;;;;;4.90;3.87;;;;;;;9.83;54.01;103198.38;5018488;28;20195;-73
2022/04/16 05:50:40;;;;;;;3.63;3.33;;;;;;;10.23;52.95;103202.19;5018166;28;20229;-72
2022/04/16 05:53:06;;;;;;;3.23;2.93;;;;;;;9.89;50.79;103203.03;5017235;28;20210;-72
2022/04/16 05:55:31;;;;;;;3.77;3.40;;;;;;;9.95;52.63;103211.16;5018340;28;20483;-72
2022/04/16 05:57:57;;;;;;;4.10;3.70;;;;;;;10.34;50.64;103206.22;5018201;28;20388;-72
2022/04/16 06:00:22;;;;;;;5.17;3.00;;;;;;;10.32;50.68;103207.81;5017940;28;20544;-72
2022/04/16 06:02:47;;;;;;;5.97;3.53;;;;;;;11.62;49.03;103211.41;5017023;28;20258;-71
2022/04/16 06:05:13;;;;;;;4.00;3.00;;;;;;;11.21;46.94;103213.91;5017528;28;20203;-71
2022/04/16 06:07:38;;;;;;;3.30;3.00;;;;;;;11.11;45.73;103211.69;5011950;28;20499;-71
2022/04/16 06:10:04;;;;;;;3.33;3.03;;;;;;;11.92;45.43;103208.38;4998194;28;20230;-72
2022/04/16 06:12:29;;;;;;;2.73;2.53;;;;;;;10.14;48.62;103214.75;5010125;28;20183;-73
2022/04/16 06:14:54;;;;;;;2.90;2.70;;;;;;;12.91;43.76;103199.44;5018261;28;20215;-70
2022/04/16 06:17:20;;;;;;;4.83;2.87;;;;;;;12.12;45.12;103215.41;5034594;28;20217;-68
2022/04/16 06:19:45;;;;;;;3.70;3.10;;;;;;;14.58;39.21;103202.81;5037450;28;20174;-72
2022/04/16 06:22:11;;;;;;;3.60;2.80;;;;;;;12.71;42.89;103215.22;5040945;28;20456;-71
2022/04/16 06:24:41;;;;;;;3.30;3.00;;;;;;;11.73;45.25;103219.72;5024550;28;20302;-75
2022/04/16 06:27:06;;;;;;;4.83;3.17;;;;;;;11.06;45.58;103221.91;5020993;28;20469;-73
2022/04/16 06:29:31;;;;;;;2.90;2.70;;;;;;;11.08;46.12;103230.72;5018430;28;20434;-72
2022/04/16 06:31:56;;;;;;;3.47;3.13;;;;;;;10.40;47.21;103240.44;5006262;28;20335;-72
2022/04/16 06:34:23;;;;;;;3.40;2.70;;;;;;;10.49;48.05;103244.34;5021287;28;20210;-72
2022/04/16 06:36:50;;;;;;;3.20;3.00;;;;;;;11.27;45.90;103236.78;5021453;28;20201;-72
2022/04/16 06:39:15;;;;;;;2.97;2.77;;;;;;;11.91;42.98;103243.19;5021157;28;20450;-72
2022/04/16 06:41:40;;;;;;;3.50;3.20;;;;;;;13.11;41.32;103234.22;5020851;28;20400;-71
2022/04/16 06:44:06;;;;;;;3.10;2.83;;;;;;;11.14;44.08;103257.94;5020862;28;20202;-71
2022/04/16 06:46:32;;;;;;;3.20;2.80;;;;;;;12.04;41.08;103250.78;5020935;28;20186;-72
2022/04/16 06:48:57;;;;;;;2.93;2.73;;;;;;;11.30;44.53;103247.41;5020970;28;20447;-71
2022/04/16 06:51:23;;;;;;;5.30;3.60;;;;;;;11.27;43.10;103245.53;5021068;28;20182;-72
2022/04/16 06:53:48;;;;;;;3.47;3.17;;;;;;;11.73;42.67;103249.38;5019722;28;20171;-72
2022/04/16 06:56:13;;;;;;;3.27;2.93;;;;;;;13.32;40.34;103232.44;5020172;28;20206;-73
2022/04/16 06:58:39;;;;;;;4.27;3.33;;;;;;;14.28;37.79;103235.94;5020449;28;20178;-73
2022/04/16 07:01:04;;;;;;;3.60;2.87;;;;;;;11.68;40.67;103266.56;5020678;28;20252;-72
2022/04/16 07:03:29;;;;;;;3.50;3.20;;;;;;;14.16;37.14;103248.63;5020114;28;20238;-74
2022/04/16 07:05:55;;;;;;;3.03;2.83;;;;;;;13.78;38.53;103242.91;5019985;28;20302;-74
2022/04/16 07:08:20;;;;;;;2.90;2.70;;;;;;;12.35;40.72;103257.31;5020819;28;20226;-75
2022/04/16 07:10:45;;;;;;;3.10;2.90;;;;;;;12.95;39.57;103253.72;5018637;28;20191;-74
2022/04/16 07:13:11;;;;;;;3.87;3.20;;;;;;;12.07;41.36;103260.47;5020122;28;20233;-74
2022/04/16 07:15:36;;;;;;;3.23;2.93;;;;;;;13.11;38.36;103255.19;5019934;28;20186;-74
2022/04/16 07:18:12;;;;;;;3.27;2.90;;;;;;;12.23;38.93;103264.66;5022005;28;20209;-73
2022/04/16 07:20:38;;;;;;;3.20;2.90;;;;;;;12.89;37.57;103256.94;4995290;28;20211;-73
2022/04/16 07:23:07;;;;;;;3.20;2.90;;;;;;;11.44;42.15;103266.31;5000827;28;20549;-73
2022/04/16 07:25:33;;;;;;;3.33;3.00;;;;;;;13.23;39.49;103257.41;5000850;28;20187;-71
2022/04/16 07:27:59;;;;;;;3.00;2.80;;;;;;;13.71;38.27;103254.03;5000628;28;20427;-71
2022/04/16 07:30:24;;;;;;;3.60;3.30;;;;;;;14.14;36.48;103261.69;5000472;28;20408;-71
2022/04/16 07:32:50;;;;;;;3.70;3.00;;;;;;;12.58;38.62;103275.72;5014137;28;20548;-71
2022/04/16 07:35:16;;;;;;;2.90;2.70;;;;;;;11.62;39.98;103276.72;5020092;28;20175;-78
2022/04/16 07:37:41;;;;;;;3.03;2.83;;;;;;;13.43;36.87;103266.94;5020366;28;20430;-78
2022/04/16 07:40:07;;;;;;;3.43;3.13;;;;;;;13.53;37.24;103269.94;5020174;28;20256;-77
2022/04/16 07:42:32;;;;;;;3.70;2.70;;;;;;;13.59;36.46;103267.56;5020525;28;20559;-76
2022/04/16 07:44:58;;;;;;;3.00;2.80;;;;;;;14.80;34.26;103270.97;5019994;28;20293;-77
2022/04/16 07:47:23;;;;;;;3.30;3.10;;;;;;;16.87;31.53;103260.13;5020360;28;20186;-77
2022/04/16 07:49:48;;;;;;;2.80;2.60;;;;;;;16.74;30.70;103266.84;5020110;28;20182;-75
2022/04/16 07:52:14;;;;;;;2.87;2.67;;;;;;;14.92;33.28;103261.69;5019884;28;20174;-79
2022/04/16 07:54:39;;;;;;;2.97;2.77;;;;;;;15.26;33.36;103266.28;5020518;28;20171;-76
2022/04/16 07:57:05;;;;;;;2.87;2.63;;;;;;;13.58;35.86;103271.88;5020122;28;20529;-80
2022/04/16 07:59:31;;;;;;;2.83;2.63;;;;;;;15.24;34.37;103272.34;5019330;28;20179;-77
2022/04/16 08:01:59;;;;;;;3.23;2.90;;;;;;;16.68;30.58;103266.69;5019965;28;20410;-76
2022/04/16 08:04:24;;;;;;;3.20;3.00;;;;;;;15.23;33.35;103268.78;5019412;28;20235;-77
2022/04/16 08:06:50;;;;;;;3.97;3.13;;;;;;;17.29;31.09;103261.09;5019583;28;20425;-77
2022/04/16 08:09:16;;;;;;;3.40;3.10;;;;;;;15.91;32.75;103270.84;5020601;28;20186;-78
2022/04/16 08:11:41;;;;;;;3.20;2.90;;;;;;;16.06;32.58;103272.09;5019878;28;20414;-79
2022/04/16 08:14:07;;;;;;;3.20;2.83;;;;;;;14.46;33.58;103277.69;5019220;28;20178;-78
2022/04/16 08:16:32;;;;;;;5.80;3.30;;;;;;;17.33;30.07;103270.88;5020433;28;20175;-78
2022/04/16 08:18:58;;;;;;;3.00;2.70;;;;;;;18.15;27.76;103265.53;5019056;28;20236;-76
2022/04/16 08:21:28;;;;;;;4.73;2.70;;;;;;;14.51;31.57;103284.81;5019132;28;20210;-73
2022/04/16 08:24:03;;;;;;;2.80;2.50;;;;;;;14.33;31.73;103301.72;5019683;28;20222;-76
2022/04/16 08:26:29;;;;;;;3.10;2.80;;;;;;;15.75;30.85;103280.00;5019382;28;20685;-74
2022/04/16 08:28:54;;;;;;;3.10;2.90;;;;;;;16.38;29.67;103278.22;5019280;28;20414;-76
2022/04/16 08:31:22;;;;;;;3.00;2.80;;;;;;;16.94;29.02;103285.81;5020737;28;20329;-77
2022/04/16 08:33:49;;;;;;;2.90;2.70;;;;;;;16.67;29.97;103283.38;5026256;28;20208;-74
2022/04/16 08:36:15;;;;;;;3.00;2.80;;;;;;;16.18;30.54;103288.22;5028982;28;20417;-75
2022/04/16 08:38:40;;;;;;;2.80;2.60;;;;;;;18.08;27.85;103286.53;5032469;28;20421;-78
2022/04/16 08:41:06;;;;;;;3.10;2.90;;;;;;;18.27;26.93;103278.06;5036881;28;20701;-76
2022/04/16 08:43:32;;;;;;;3.33;3.03;;;;;;;15.92;29.91;103288.38;5026246;28;20205;-76
2022/04/16 08:45:59;;;;;;;3.50;3.20;;;;;;;17.93;27.06;103279.19;5032798;28;20183;-76
2022/04/16 08:48:24;;;;;;;2.80;2.60;;;;;;;14.88;30.07;103296.59;5019772;28;20417;-77
2022/04/16 08:50:50;;;;;;;3.47;2.80;;;;;;;17.80;27.67;103281.53;5018862;28;20788;-76
2022/04/16 08:53:15;;;;;;;3.00;2.80;;;;;;;16.99;28.57;103288.53;5017926;28;20186;-78
2022/04/16 08:55:40;;;;;;;4.40;2.63;;;;;;;13.71;31.54;103299.47;5018235;28;20214;-75
2022/04/16 08:58:06;;;;;;;2.67;2.47;;;;;;;16.13;28.61;103289.84;5019012;28;20182;-74
2022/04/16 09:00:31;;;;;;;2.87;2.67;;;;;;;15.15;30.45;103286.06;5017925;28;20183;-74
2022/04/16 09:02:59;;;;;;;2.63;2.43;;;;;;;14.81;30.20;103284.97;5017584;28;20222;-75
2022/04/16 09:05:26;;;;;;;2.80;2.60;;;;;;;14.53;30.95;103289.28;5019870;28;20195;-75
2022/04/16 09:07:55;;;;;;;3.03;2.83;;;;;;;13.86;30.87;103282.53;5020158;28;20422;-73
2022/04/16 09:10:21;;;;;;;3.20;2.60;;;;;;;14.29;31.17;103290.22;5027528;28;20425;-74
2022/04/16 09:12:51;;;;;;;2.67;2.47;;;;;;;15.02;30.46;103284.81;5025722;28;20418;-76
2022/04/16 09:15:17;;;;;;;2.80;2.60;;;;;;;14.16;31.33;103295.84;5025655;28;20568;-74
2022/04/16 09:17:42;;;;;;;2.90;2.70;;;;;;;13.56;32.26;103288.41;5025219;28;20425;-75
2022/04/16 09:20:12;;;;;;;3.00;2.80;;;;;;;16.32;28.56;103283.34;5007435;28;20233;-76
2022/04/16 09:22:38;;;;;;;3.50;2.73;;;;;;;17.67;26.63;103271.59;5023186;28;20183;-74
2022/04/16 09:25:12;;;;;;;2.87;2.67;;;;;;;15.72;28.08;103271.13;5020914;28;20469;-73
2022/04/16 09:27:42;;;;;;;3.57;3.10;;;;;;;17.85;26.57;103266.69;5005530;28;20830;-74
2022/04/16 09:30:07;;;;;;;3.33;2.97;;;;;;;15.86;28.57;103293.50;5036640;28;20448;-74
2022/04/16 09:32:41;;;;;;;3.00;2.80;;;;;;;14.84;29.57;103292.94;5034056;28;20480;-74
2022/04/16 09:35:07;;;;;;;4.43;2.73;;;;;;;14.82;29.71;103289.41;5035420;28;20188;-74
2022/04/16 09:37:33;;;;;;;2.60;2.40;;;;;;;19.06;24.48;103273.22;5035687;28;20401;-73
2022/04/16 09:40:09;;;;;;;2.73;2.53;;;;;;;16.88;25.92;103292.66;5020822;28;20229;-73
2022/04/16 09:42:35;;;;;;;2.70;2.50;;;;;;;18.93;24.73;103273.03;5034283;28;20523;-74
2022/04/16 09:45:02;;;;;;;3.77;2.70;;;;;;;15.16;26.95;103286.09;5027581;28;20547;-74
2022/04/16 09:47:30;;;;;;;2.90;2.70;;;;;;;16.83;26.37;103293.44;5034751;28;20608;-75
2022/04/16 09:49:56;;;;;;;2.90;2.70;;;;;;;16.24;27.75;103284.88;5030176;28;20429;-70
2022/04/16 09:52:23;;;;;;;2.90;2.70;;;;;;;14.16;29.66;103316.84;5026148;28;20476;-73
2022/04/16 09:54:50;;;;;;;2.87;2.67;;;;;;;14.44;28.78;103294.22;5019318;28;20674;-77
2022/04/16 09:57:19;;;;;;;3.07;2.87;;;;;;;14.96;28.36;103296.00;5030070;28;20468;-78
2022/04/16 09:59:50;;;;;;;4.13;2.90;;;;;;;15.64;30.80;103297.19;5017052;28;20500;-65
2022/04/16 10:02:15;;;;;;;4.40;3.50;;;;;;;17.04;27.51;103286.91;5028748;28;20703;-65
2022/04/16 10:04:41;;;;;;;2.77;2.57;;;;;;;14.22;28.99;103289.94;5036479;28;20468;-76
2022/04/16 10:07:06;;;;;;;2.67;2.47;;;;;;;13.47;30.92;103284.56;5023415;28;20187;-76
2022/04/16 10:09:35;;;;;;;2.93;2.70;;;;;;;16.60;27.22;103274.41;5024513;28;20170;-75
2022/04/16 10:15:04;;;;;;;3.07;2.83;;;;;;;16.60;25.62;103274.41;5030773;28;20457;-76
2022/04/16 10:17:42;;;;;;;3.13;2.87;;;;;;;14.72;29.25;103282.97;5020675;28;20429;-75
2022/04/16 10:20:21;;;;;;;3.10;2.90;;;;;;;16.77;27.62;103269.56;5032324;28;20458;-76
2022/04/16 10:22:53;;;;;;;3.13;2.83;;;;;;;17.82;25.10;103265.75;5025026;28;20411;-77
2022/04/16 10:25:31;;;;;;;3.20;3.00;;;;;;;16.95;26.01;103270.88;5009637;28;20563;-76
2022/04/16 10:28:02;;;;;;;3.20;3.00;;;;;;;15.54;28.03;103279.38;5047448;28;20455;-76
2022/04/16 10:30:55;;;;;;;3.27;2.97;;;;;;;14.97;29.73;103268.88;5029837;28;20424;-78
2022/04/16 10:33:27;;;;;;;3.23;3.03;;;;;;;17.59;25.49;103252.06;5022494;28;20440;-76
2022/04/16 10:35:56;;;;;;;3.10;2.90;;;;;;;18.65;25.37;103255.81;5031913;28;20461;-76
2022/04/16 10:38:26;;;;;;;3.20;3.00;;;;;;;18.48;23.97;103256.44;5032032;28;20433;-76
2022/04/16 10:41:19;;;;;;;3.50;3.20;;;;;;;15.25;29.11;103274.09;5023088;28;20425;-76
2022/04/16 10:43:54;;;;;;;4.00;3.70;;;;;;;18.98;25.87;103251.94;5026186;28;20480;-77
2022/04/16 10:46:19;;;;;;;3.10;2.90;;;;;;;18.45;25.46;103253.72;5020553;28;20416;-75
2022/04/16 10:48:45;;;;;;;3.30;3.00;;;;;;;16.95;27.39;103255.97;5020648;28;20422;-77
2022/04/16 10:51:10;;;;;;;3.20;3.00;;;;;;;18.81;25.65;103263.13;5021082;28;20277;-76
2022/04/16 10:53:37;;;;;;;3.27;2.97;;;;;;;14.99;30.04;103264.56;5021469;28;20167;-76
2022/04/16 10:56:17;;;;;;;4.27;3.37;;;;;;;18.88;25.66;103253.56;5022341;28;20211;-81
2022/04/16 10:58:45;;;;;;;3.67;3.40;;;;;;;18.27;24.46;103264.00;5023940;28;20416;-86
2022/04/16 11:01:13;;;;;;;3.20;3.00;;;;;;;14.91;29.58;103270.41;5022714;28;20491;-84
2022/04/16 11:03:47;;;;;;;4.00;3.70;;;;;;;14.06;31.50;103278.91;5023093;28;20492;-82
2022/04/16 11:06:12;;;;;;;4.10;3.73;;;;;;;14.90;30.21;103269.53;5022240;28;20417;-82
2022/04/16 11:08:41;;;;;;;3.73;3.43;;;;;;;14.63;30.28;103269.53;5023069;28;20490;-82
2022/04/16 11:11:07;;;;;;;3.40;3.20;;;;;;;14.69;30.31;103266.19;5021951;28;20427;-82
2022/04/16 11:13:37;;;;;;;4.00;3.60;;;;;;;17.29;27.21;103245.28;5021294;28;20468;-82
2022/04/16 11:16:04;;;;;;;3.70;3.40;;;;;;;15.96;28.36;103252.53;5021349;28;20425;-82
2022/04/16 11:18:42;;;;;;;3.40;3.20;;;;;;;15.76;28.27;103252.84;5024268;28;20894;-81
2022/04/16 11:21:12;;;;;;;3.33;3.13;;;;;;;16.19;27.46;103260.19;5024418;28;20422;-81
2022/04/16 11:23:47;;;;;;;3.43;3.17;;;;;;;16.40;27.87;103266.00;5022328;28;20457;-82
2022/04/16 11:34:29;;;;;;;3.43;3.17;;;;;;;16.68;25.85;103250.88;5020774;28;20428;-75
2022/04/16 11:36:55;;;;;;;3.83;3.20;;;;;;;16.54;26.04;103240.03;5020002;28;20422;-76
2022/04/16 11:39:22;;;;;;;4.00;3.70;;;;;;;14.74;27.52;103252.38;5020091;28;20183;-72
2022/04/16 11:41:53;;;;;;;3.90;3.60;;;;;;;14.55;27.92;103255.22;5019750;28;20270;-76
2022/04/16 11:44:38;;;;;;;3.53;3.23;;;;;;;14.45;27.40;103249.66;5019622;28;20515;-75
2022/04/16 11:47:11;;;;;;;3.40;3.20;;;;;;;14.12;28.95;103250.25;5019108;28;20677;-77
2022/04/16 11:49:38;;;;;;;3.80;3.50;;;;;;;13.57;29.86;103253.47;5019512;28;20706;-72
2022/04/16 11:52:04;;;;;;;3.37;3.17;;;;;;;14.19;28.79;103247.84;5010405;28;20433;-74